createdAt,value
2018-09-10T00:00:36.561Z,968.91
2018-09-10T00:01:36.560Z,968.89
2018-09-10T00:02:36.559Z,968.89
2018-09-10T00:03:36.563Z,968.90
2018-09-10T00:04:36.557Z,968.90
2018-09-10T00:05:36.558Z,968.87
2018-09-10T00:06:36.555Z,968.86
2018-09-10T00:07:36.558Z,968.89
2018-09-10T00:08:36.553Z,968.91
2018-09-10T00:09:36.552Z,968.91
2018-09-10T00:10:36.554Z,968.88
2018-09-10T00:11:36.548Z,968.83
2018-09-10T00:12:36.554Z,968.90
2018-09-10T00:13:36.546Z,968.83
2018-09-10T00:14:36.547Z,968.83
2018-09-10T00:15:36.545Z,968.82
2018-09-10T00:16:36.551Z,968.84
2018-09-10T00:17:36.548Z,968.85
2018-09-10T00:18:36.557Z,968.84
2018-09-10T00:19:36.540Z,968.85
2018-09-10T00:20:36.540Z,968.83
2018-09-10T00:21:36.539Z,968.86
2018-09-10T00:22:36.540Z,968.87
2018-09-10T00:23:36.540Z,968.86
2018-09-10T00:24:36.536Z,968.92
2018-09-10T00:25:36.537Z,968.93
2018-09-10T00:26:36.537Z,968.90
2018-09-10T00:27:36.537Z,968.88
2018-09-10T00:28:36.534Z,968.90
2018-09-10T00:29:36.528Z,968.87
2018-09-10T00:30:36.532Z,968.87
2018-09-10T00:31:36.530Z,968.88
2018-09-10T00:32:36.540Z,968.87
2018-09-10T00:33:36.538Z,968.93
2018-09-10T00:34:36.548Z,968.89
2018-09-10T00:35:36.523Z,968.88
2018-09-10T00:36:36.526Z,968.88
2018-09-10T00:37:36.523Z,968.90
2018-09-10T00:38:36.522Z,968.88
2018-09-10T00:39:36.519Z,968.89
2018-09-10T00:40:36.520Z,968.89
2018-09-10T00:41:36.527Z,968.88
2018-09-10T00:42:36.517Z,968.85
2018-09-10T00:43:36.514Z,968.86
2018-09-10T00:44:36.522Z,968.84
2018-09-10T00:45:36.516Z,968.88
2018-09-10T00:46:36.512Z,968.87
2018-09-10T00:47:36.512Z,968.89
2018-09-10T00:48:36.511Z,968.90
2018-09-10T00:49:36.507Z,968.84
2018-09-10T00:50:36.510Z,968.86
2018-09-10T00:51:36.508Z,968.84
2018-09-10T00:52:36.504Z,968.86
2018-09-10T00:53:36.513Z,968.84
2018-09-10T00:54:36.505Z,968.87
2018-09-10T00:55:36.501Z,968.87
2018-09-10T00:56:36.499Z,968.86
2018-09-10T00:57:36.496Z,968.87
2018-09-10T00:58:36.507Z,968.90
2018-09-10T00:59:36.496Z,968.90
2018-09-10T01:00:36.492Z,968.89
2018-09-10T01:01:36.493Z,968.86
2018-09-10T01:02:36.494Z,968.87
2018-09-10T01:03:36.490Z,968.86
2018-09-10T01:04:36.491Z,968.89
2018-09-10T01:05:36.488Z,968.88
2018-09-10T01:06:36.490Z,968.91
2018-09-10T01:07:36.504Z,968.89
2018-09-10T01:08:36.485Z,968.91
2018-09-10T01:09:36.484Z,968.93
2018-09-10T01:10:36.483Z,968.92
2018-09-10T01:11:36.481Z,968.90
2018-09-10T01:12:36.490Z,968.91
2018-09-10T01:13:36.481Z,968.88
2018-09-10T01:14:36.477Z,968.88
2018-09-10T01:15:36.481Z,968.87
2018-09-10T01:16:36.478Z,968.90
2018-09-10T01:17:36.470Z,968.84
2018-09-10T01:18:36.474Z,968.85
2018-09-10T01:19:36.474Z,968.83
2018-09-10T01:20:36.478Z,968.84
2018-09-10T01:21:36.478Z,968.84
2018-09-10T01:22:36.469Z,968.91
2018-09-10T01:23:36.470Z,968.87
2018-09-10T01:24:36.474Z,968.87
2018-09-10T01:25:36.485Z,968.85
2018-09-10T01:26:36.465Z,968.84
2018-09-10T01:27:36.458Z,968.83
2018-09-10T01:28:36.470Z,968.83
2018-09-10T01:29:36.461Z,968.83
2018-09-10T01:30:36.461Z,968.81
2018-09-10T01:31:36.467Z,968.81
2018-09-10T01:32:36.459Z,968.82
2018-09-10T01:33:36.457Z,968.84
2018-09-10T01:34:36.458Z,968.81
2018-09-10T01:35:36.459Z,968.81
2018-09-10T01:36:36.459Z,968.81
2018-09-10T01:37:36.456Z,968.83
2018-09-10T01:38:36.460Z,968.82
2018-09-10T01:39:36.453Z,968.84
2018-09-10T01:40:36.449Z,968.85
2018-09-10T01:41:36.450Z,968.82
2018-09-10T01:42:36.457Z,968.87
2018-09-10T01:43:36.449Z,968.87
2018-09-10T01:44:36.453Z,968.88
2018-09-10T01:45:36.449Z,968.90
2018-09-10T01:46:36.456Z,968.89
2018-09-10T01:47:36.449Z,968.90
2018-09-10T01:48:36.448Z,968.90
2018-09-10T01:49:36.458Z,968.89
2018-09-10T01:50:36.446Z,968.90
2018-09-10T01:51:36.459Z,968.85
2018-09-10T01:52:36.445Z,968.82
2018-09-10T01:53:36.455Z,968.90
2018-09-10T01:54:36.445Z,968.87
2018-09-10T01:55:36.444Z,968.89
2018-09-10T01:56:36.444Z,968.87
2018-09-10T01:57:36.442Z,968.84
2018-09-10T01:58:36.444Z,968.88
2018-09-10T01:59:36.441Z,968.82
2018-09-10T02:00:38.068Z,968.83
2018-09-10T02:01:36.445Z,968.81
2018-09-10T02:02:36.440Z,968.83
2018-09-10T02:03:36.458Z,968.79
2018-09-10T02:04:36.441Z,968.78
2018-09-10T02:05:36.441Z,968.74
2018-09-10T02:06:36.440Z,968.78
2018-09-10T02:07:36.447Z,968.72
2018-09-10T02:08:36.438Z,968.71
2018-09-10T02:09:39.062Z,968.76
2018-09-10T02:10:36.436Z,968.77
2018-09-10T02:11:36.435Z,968.70
2018-09-10T02:12:36.438Z,968.71
2018-09-10T02:13:36.443Z,968.71
2018-09-10T02:14:36.435Z,968.72
2018-09-10T02:15:36.433Z,968.66
2018-09-10T02:16:36.433Z,968.69
2018-09-10T02:17:36.456Z,968.70
2018-09-10T02:18:36.439Z,968.70
2018-09-10T02:19:36.431Z,968.72
2018-09-10T02:20:36.431Z,968.72
2018-09-10T02:21:36.435Z,968.67
2018-09-10T02:22:36.435Z,968.69
2018-09-10T02:23:36.485Z,968.67
2018-09-10T02:24:36.436Z,968.64
2018-09-10T02:25:36.428Z,968.60
2018-09-10T02:26:36.426Z,968.61
2018-09-10T02:27:36.471Z,968.65
2018-09-10T02:28:36.424Z,968.67
2018-09-10T02:29:36.436Z,968.66
2018-09-10T02:30:36.422Z,968.65
2018-09-10T02:31:36.421Z,968.64
2018-09-10T02:32:36.421Z,968.61
2018-09-10T02:33:36.478Z,968.63
2018-09-10T02:34:36.420Z,968.60
2018-09-10T02:35:36.417Z,968.56
2018-09-10T02:36:36.427Z,968.52
2018-09-10T02:37:36.435Z,968.48
2018-09-10T02:38:36.559Z,968.50
2018-09-10T02:39:36.418Z,968.52
2018-09-10T02:40:36.420Z,968.53
2018-09-10T02:41:36.423Z,968.50
2018-09-10T02:42:36.412Z,968.55
2018-09-10T02:43:36.412Z,968.59
2018-09-10T02:44:36.409Z,968.58
2018-09-10T02:45:36.407Z,968.60
2018-09-10T02:46:36.407Z,968.61
2018-09-10T02:47:36.405Z,968.59
2018-09-10T02:48:36.420Z,968.59
2018-09-10T02:49:36.405Z,968.64
2018-09-10T02:50:36.400Z,968.61
2018-09-10T02:51:36.403Z,968.64
2018-09-10T02:52:36.400Z,968.58
2018-09-10T02:53:36.397Z,968.60
2018-09-10T02:54:36.402Z,968.59
2018-09-10T02:55:36.394Z,968.60
2018-09-10T02:56:36.395Z,968.59
2018-09-10T02:57:36.391Z,968.61
2018-09-10T02:58:36.392Z,968.62
2018-09-10T02:59:36.418Z,968.55
2018-09-10T03:00:36.392Z,968.60
2018-09-10T03:01:36.388Z,968.57
2018-09-10T03:02:36.391Z,968.60
2018-09-10T03:03:36.388Z,968.55
2018-09-10T03:04:36.387Z,968.54
2018-09-10T03:05:36.386Z,968.56
2018-09-10T03:06:36.384Z,968.55
2018-09-10T03:07:36.382Z,968.55
2018-09-10T03:08:36.382Z,968.57
2018-09-10T03:09:36.382Z,968.60
2018-09-10T03:10:36.382Z,968.53
2018-09-10T03:11:36.380Z,968.60
2018-09-10T03:12:36.379Z,968.63
2018-09-10T03:13:36.374Z,968.61
2018-09-10T03:14:36.394Z,968.64
2018-09-10T03:15:36.372Z,968.59
2018-09-10T03:16:36.372Z,968.61
2018-09-10T03:17:36.377Z,968.61
2018-09-10T03:18:36.369Z,968.59
2018-09-10T03:19:36.367Z,968.60
2018-09-10T03:20:36.373Z,968.60
2018-09-10T03:21:36.366Z,968.58
2018-09-10T03:22:36.364Z,968.57
2018-09-10T03:23:36.366Z,968.57
2018-09-10T03:24:36.366Z,968.57
2018-09-10T03:25:36.363Z,968.64
2018-09-10T03:26:36.362Z,968.62
2018-09-10T03:27:36.360Z,968.59
2018-09-10T03:28:36.357Z,968.59
2018-09-10T03:29:36.357Z,968.61
2018-09-10T03:30:36.357Z,968.61
2018-09-10T03:31:36.353Z,968.55
2018-09-10T03:32:36.351Z,968.60
2018-09-10T03:33:36.382Z,968.63
2018-09-10T03:34:36.355Z,968.61
2018-09-10T03:35:36.350Z,968.65
2018-09-10T03:36:36.350Z,968.69
2018-09-10T03:37:36.349Z,968.68
2018-09-10T03:38:36.349Z,968.66
2018-09-10T03:39:36.353Z,968.68
2018-09-10T03:40:36.344Z,968.72
2018-09-10T03:41:36.349Z,968.77
2018-09-10T03:42:36.342Z,968.75
2018-09-10T03:43:36.355Z,968.78
2018-09-10T03:44:36.340Z,968.79
2018-09-10T03:45:36.340Z,968.76
2018-09-10T03:46:36.343Z,968.79
2018-09-10T03:47:36.338Z,968.82
2018-09-10T03:48:36.339Z,968.76
2018-09-10T03:49:36.344Z,968.79
2018-09-10T03:50:36.337Z,968.76
2018-09-10T03:51:36.334Z,968.73
2018-09-10T03:52:36.335Z,968.72
2018-09-10T03:53:36.333Z,968.75
2018-09-10T03:54:36.335Z,968.75
2018-09-10T03:55:36.333Z,968.73
2018-09-10T03:56:36.330Z,968.75
2018-09-10T03:57:36.330Z,968.68
2018-09-10T03:58:36.332Z,968.65
2018-09-10T03:59:36.325Z,968.68
2018-09-10T04:00:36.326Z,968.68
2018-09-10T04:01:36.326Z,968.62
2018-09-10T04:02:36.327Z,968.62
2018-09-10T04:03:36.328Z,968.61
2018-09-10T04:04:36.323Z,968.60
2018-09-10T04:05:36.336Z,968.59
2018-09-10T04:06:36.321Z,968.57
2018-09-10T04:07:36.329Z,968.56
2018-09-10T04:08:36.319Z,968.56
2018-09-10T04:09:36.318Z,968.58
2018-09-10T04:10:36.584Z,968.59
2018-09-10T04:11:36.335Z,968.57
2018-09-10T04:12:36.313Z,968.57
2018-09-10T04:13:36.316Z,968.55
2018-09-10T04:14:36.318Z,968.58
2018-09-10T04:15:38.090Z,968.54
2018-09-10T04:16:36.336Z,968.58
2018-09-10T04:17:36.336Z,968.57
2018-09-10T04:18:36.313Z,968.59
2018-09-10T04:19:36.321Z,968.59
2018-09-10T04:20:38.128Z,968.57
2018-09-10T04:21:38.104Z,968.57
2018-09-10T04:22:38.096Z,968.60
2018-09-10T04:23:39.082Z,968.58
2018-09-10T04:24:43.792Z,968.58
2018-09-10T04:26:29.241Z,968.60
2018-09-10T04:27:29.494Z,968.63
2018-09-10T04:29:22.695Z,968.65
2018-09-10T04:30:22.640Z,968.65
2018-09-10T04:32:15.990Z,968.63
2018-09-10T04:33:16.389Z,968.61
2018-09-10T04:34:17.256Z,968.61
2018-09-10T04:35:16.160Z,968.61
2018-09-10T04:36:16.038Z,968.65
2018-09-10T04:37:17.507Z,968.63
2018-09-10T04:38:15.897Z,968.60
2018-09-10T04:39:15.917Z,968.62
2018-09-10T04:40:17.458Z,968.58
2018-09-10T04:41:15.913Z,968.61
2018-09-10T04:42:17.565Z,968.58
2018-09-10T04:43:15.887Z,968.62
2018-09-10T04:44:15.893Z,968.59
2018-09-10T04:45:15.889Z,968.60
2018-09-10T04:46:15.888Z,968.60
2018-09-10T04:47:17.460Z,968.66
2018-09-10T04:48:15.896Z,968.61
2018-09-10T04:49:15.904Z,968.60
2018-09-10T04:50:15.888Z,968.62
2018-09-10T04:51:15.885Z,968.63
2018-09-10T04:52:15.904Z,968.63
2018-09-10T04:53:15.886Z,968.63
2018-09-10T04:54:15.914Z,968.62
2018-09-10T04:55:15.886Z,968.66
2018-09-10T04:56:15.887Z,968.61
2018-09-10T04:57:15.888Z,968.64
2018-09-10T04:58:15.961Z,968.63
2018-09-10T04:59:15.883Z,968.62
2018-09-10T05:00:15.880Z,968.64
2018-09-10T05:01:15.881Z,968.62
2018-09-10T05:02:15.881Z,968.63
2018-09-10T05:03:15.878Z,968.62
2018-09-10T05:04:15.881Z,968.61
2018-09-10T05:05:15.880Z,968.62
2018-09-10T05:06:15.877Z,968.65
2018-09-10T05:07:15.885Z,968.62
2018-09-10T05:08:15.892Z,968.68
2018-09-10T05:09:15.913Z,968.71
2018-09-10T05:10:15.887Z,968.67
2018-09-10T05:11:15.908Z,968.67
2018-09-10T05:12:15.890Z,968.68
2018-09-10T05:13:15.873Z,968.65
2018-09-10T05:14:15.876Z,968.70
2018-09-10T05:15:15.880Z,968.66
2018-09-10T05:16:15.881Z,968.66
2018-09-10T05:17:15.875Z,968.67
2018-09-10T05:18:15.874Z,968.66
2018-09-10T05:19:15.933Z,968.69
2018-09-10T05:20:15.875Z,968.66
2018-09-10T05:21:15.911Z,968.66
2018-09-10T05:22:15.873Z,968.69
2018-09-10T05:23:15.872Z,968.71
2018-09-10T05:24:15.876Z,968.74
2018-09-10T05:25:15.871Z,968.70
2018-09-10T05:26:15.870Z,968.72
2018-09-10T05:27:15.870Z,968.78
2018-09-10T05:28:15.907Z,968.75
2018-09-10T05:29:15.875Z,968.80
2018-09-10T05:30:15.871Z,968.77
2018-09-10T05:31:15.872Z,968.78
2018-09-10T05:32:15.873Z,968.80
2018-09-10T05:33:15.870Z,968.78
2018-09-10T05:34:15.871Z,968.78
2018-09-10T05:35:15.871Z,968.76
2018-09-10T05:36:15.869Z,968.80
2018-09-10T05:37:15.870Z,968.76
2018-09-10T05:38:15.881Z,968.77
2018-09-10T05:39:15.873Z,968.76
2018-09-10T05:40:15.903Z,968.78
2018-09-10T05:41:15.907Z,968.77
2018-09-10T05:42:15.868Z,968.80
2018-09-10T05:43:15.899Z,968.80
2018-09-10T05:44:15.873Z,968.84
2018-09-10T05:45:15.870Z,968.80
2018-09-10T05:46:15.869Z,968.79
2018-09-10T05:47:15.877Z,968.79
2018-09-10T05:48:15.875Z,968.79
2018-09-10T05:49:15.869Z,968.79
2018-09-10T05:50:15.870Z,968.81
2018-09-10T05:51:15.893Z,968.74
2018-09-10T05:52:15.871Z,968.78
2018-09-10T05:53:15.920Z,968.80
2018-09-10T05:54:15.874Z,968.80
2018-09-10T05:55:15.873Z,968.81
2018-09-10T05:56:15.872Z,968.84
2018-09-10T05:57:15.873Z,968.90
2018-09-10T05:58:15.899Z,968.90
2018-09-10T05:59:15.875Z,968.92
2018-09-10T06:00:15.883Z,968.91
2018-09-10T06:01:15.895Z,968.90
2018-09-10T06:02:15.891Z,968.94
2018-09-10T06:03:15.876Z,968.95
2018-09-10T06:04:15.877Z,968.96
2018-09-10T06:05:15.878Z,968.97
2018-09-10T06:06:15.882Z,968.96
2018-09-10T06:07:15.880Z,968.96
2018-09-10T06:08:15.909Z,968.97
2018-09-10T06:09:15.884Z,968.99
2018-09-10T06:10:15.932Z,968.97
2018-09-10T06:11:15.890Z,969.00
2018-09-10T06:12:15.889Z,969.02
2018-09-10T06:13:15.888Z,969.04
2018-09-10T06:14:15.889Z,969.06
2018-09-10T06:15:15.894Z,969.11
2018-09-10T06:16:15.899Z,969.13
2018-09-10T06:17:15.895Z,969.13
2018-09-10T06:18:15.897Z,969.15
2018-09-10T06:19:15.895Z,969.23
2018-09-10T06:20:15.895Z,969.23
2018-09-10T06:21:15.904Z,969.21
2018-09-10T06:22:15.898Z,969.24
2018-09-10T06:23:15.901Z,969.24
2018-09-10T06:24:15.911Z,969.26
2018-09-10T06:25:15.905Z,969.25
2018-09-10T06:26:15.907Z,969.29
2018-09-10T06:27:15.912Z,969.28
2018-09-10T06:28:15.917Z,969.27
2018-09-10T06:29:15.908Z,969.25
2018-09-10T06:30:15.920Z,969.30
2018-09-10T06:31:15.915Z,969.28
2018-09-10T06:32:15.913Z,969.33
2018-09-10T06:33:15.920Z,969.29
2018-09-10T06:34:15.971Z,969.26
2018-09-10T06:35:15.919Z,969.29
2018-09-10T06:36:15.923Z,969.26
2018-09-10T06:37:15.976Z,969.29
2018-09-10T06:38:15.928Z,969.27
2018-09-10T06:39:15.959Z,969.35
2018-09-10T06:40:15.937Z,969.32
2018-09-10T06:41:15.936Z,969.35
2018-09-10T06:42:15.967Z,969.30
2018-09-10T06:43:15.936Z,969.31
2018-09-10T06:44:15.962Z,969.26
2018-09-10T06:45:15.946Z,969.29
2018-09-10T06:46:15.987Z,969.28
2018-09-10T06:47:15.954Z,969.30
2018-09-10T06:48:15.991Z,969.24
2018-09-10T06:49:15.955Z,969.27
2018-09-10T06:50:15.962Z,969.29
2018-09-10T06:51:15.966Z,969.26
2018-09-10T06:52:15.969Z,969.20
2018-09-10T06:53:16.022Z,969.29
2018-09-10T06:54:15.984Z,969.26
2018-09-10T06:55:15.988Z,969.26
2018-09-10T06:56:15.989Z,969.29
2018-09-10T06:57:15.992Z,969.26
2018-09-10T06:58:16.001Z,969.32
2018-09-10T06:59:16.005Z,969.34
2018-09-10T07:00:16.019Z,969.29
2018-09-10T07:01:16.015Z,969.29
2018-09-10T07:02:16.022Z,969.34
2018-09-10T07:03:16.030Z,969.30
2018-09-10T07:04:16.035Z,969.30
2018-09-10T07:05:16.040Z,969.33
2018-09-10T07:06:16.071Z,969.32
2018-09-10T07:07:16.053Z,969.32
2018-09-10T07:08:16.062Z,969.32
2018-09-10T07:09:16.066Z,969.39
2018-09-10T07:10:16.071Z,969.43
2018-09-10T07:11:16.079Z,969.58
2018-09-10T07:12:16.103Z,969.71
2018-09-10T07:13:16.155Z,969.90
2018-09-10T07:14:16.105Z,970.03
2018-09-10T07:15:16.111Z,970.13
2018-09-10T07:16:16.115Z,970.24
2018-09-10T07:17:16.123Z,970.75
2018-09-10T07:18:16.129Z,971.37
2018-09-10T07:19:16.154Z,971.69
2018-09-10T07:20:16.147Z,972.03
2018-09-10T07:21:16.165Z,971.87
2018-09-10T07:22:16.158Z,971.38
2018-09-10T07:23:16.170Z,970.79
2018-09-10T07:24:16.177Z,970.46
2018-09-10T07:25:16.191Z,970.44
2018-09-10T07:26:16.193Z,969.94
2018-09-10T07:27:16.204Z,970.35
2018-09-10T07:28:16.213Z,970.29
2018-09-10T07:29:16.218Z,970.21
2018-09-10T07:30:16.229Z,970.19
2018-09-10T07:31:16.239Z,970.06
2018-09-10T07:32:16.247Z,970.02
2018-09-10T07:33:16.255Z,969.94
2018-09-10T07:34:16.265Z,970.00
2018-09-10T07:35:16.300Z,969.96
2018-09-10T07:36:16.291Z,969.97
2018-09-10T07:37:16.295Z,969.93
2018-09-10T07:38:16.304Z,969.88
2018-09-10T07:39:16.313Z,969.88
2018-09-10T07:40:16.324Z,969.94
2018-09-10T07:41:16.331Z,969.84
2018-09-10T07:42:16.341Z,969.86
2018-09-10T07:43:16.352Z,969.87
2018-09-10T07:44:16.405Z,969.91
2018-09-10T07:45:16.372Z,969.85
2018-09-10T07:46:16.380Z,969.81
2018-09-10T07:47:16.400Z,969.87
2018-09-10T07:48:16.405Z,969.82
2018-09-10T07:49:16.412Z,969.88
2018-09-10T07:50:16.480Z,969.80
2018-09-10T07:51:16.431Z,969.78
2018-09-10T07:52:16.441Z,969.76
2018-09-10T07:53:16.453Z,969.67
2018-09-10T07:54:16.460Z,969.65
2018-09-10T07:55:16.494Z,969.69
2018-09-10T07:56:16.484Z,969.69
2018-09-10T07:57:16.489Z,969.65
2018-09-10T07:58:16.525Z,969.67
2018-09-10T07:59:16.511Z,969.64
2018-09-10T08:00:16.518Z,969.62
2018-09-10T08:01:16.548Z,969.58
2018-09-10T08:02:16.544Z,969.53
2018-09-10T08:03:16.548Z,969.59
2018-09-10T08:04:16.556Z,969.50
2018-09-10T08:05:16.559Z,969.45
2018-09-10T08:06:16.569Z,969.46
2018-09-10T08:07:16.586Z,969.45
2018-09-10T08:08:16.589Z,969.44
2018-09-10T08:09:16.697Z,969.37
2018-09-10T08:10:16.603Z,969.47
2018-09-10T08:11:16.618Z,969.61
2018-09-10T08:12:16.622Z,969.58
2018-09-10T08:13:16.635Z,969.63
2018-09-10T08:14:16.633Z,969.65
2018-09-10T08:15:16.639Z,969.65
2018-09-10T08:16:16.647Z,969.65
2018-09-10T08:17:16.655Z,969.65
2018-09-10T08:18:16.660Z,969.74
2018-09-10T08:19:16.674Z,969.78
2018-09-10T08:20:16.674Z,969.80
2018-09-10T08:21:16.689Z,969.80
2018-09-10T08:22:16.722Z,969.69
2018-09-10T08:23:16.700Z,969.73
2018-09-10T08:24:16.740Z,969.71
2018-09-10T08:25:16.730Z,969.82
2018-09-10T08:26:16.743Z,969.76
2018-09-10T08:27:16.744Z,969.87
2018-09-10T08:28:16.729Z,969.87
2018-09-10T08:29:16.765Z,969.88
2018-09-10T08:30:16.757Z,969.86
2018-09-10T08:31:16.761Z,969.82
2018-09-10T08:32:16.761Z,969.73
2018-09-10T08:33:16.776Z,969.70
2018-09-10T08:34:16.783Z,969.69
2018-09-10T08:35:16.785Z,969.72
2018-09-10T08:36:16.790Z,969.72
2018-09-10T08:37:16.839Z,969.78
2018-09-10T08:38:16.808Z,969.84
2018-09-10T08:39:16.808Z,969.91
2018-09-10T08:40:16.864Z,969.97
2018-09-10T08:41:16.819Z,970.05
2018-09-10T08:42:16.830Z,970.05
2018-09-10T08:43:16.835Z,970.13
2018-09-10T08:44:16.842Z,970.19
2018-09-10T08:45:16.855Z,970.27
2018-09-10T08:46:16.852Z,970.33
2018-09-10T08:47:16.861Z,970.39
2018-09-10T08:48:16.935Z,970.40
2018-09-10T08:49:16.874Z,970.49
2018-09-10T08:50:16.882Z,970.54
2018-09-10T08:51:16.951Z,970.44
2018-09-10T08:52:16.895Z,970.72
2018-09-10T08:53:16.903Z,970.91
2018-09-10T08:54:17.035Z,970.87
2018-09-10T08:55:17.034Z,970.91
2018-09-10T08:56:17.207Z,970.92
2018-09-10T08:57:16.939Z,970.96
2018-09-10T08:58:16.964Z,970.87
2018-09-10T08:59:16.977Z,970.90
2018-09-10T09:00:17.000Z,970.94
2018-09-10T09:01:16.973Z,970.99
2018-09-10T09:02:16.980Z,970.97
2018-09-10T09:03:16.991Z,970.79
2018-09-10T09:04:17.005Z,970.72
2018-09-10T09:05:17.012Z,970.71
2018-09-10T09:06:17.039Z,970.57
2018-09-10T09:07:17.034Z,970.63
2018-09-10T09:08:17.045Z,970.41
2018-09-10T09:09:17.056Z,970.46
2018-09-10T09:10:17.063Z,970.34
2018-09-10T09:11:17.080Z,970.39
2018-09-10T09:12:17.088Z,970.42
2018-09-10T09:13:17.124Z,970.51
2018-09-10T09:14:17.141Z,970.55
2018-09-10T09:15:17.130Z,970.73
2018-09-10T09:16:17.127Z,970.73
2018-09-10T09:17:17.142Z,970.71
2018-09-10T09:18:17.154Z,970.69
2018-09-10T09:19:17.163Z,970.62
2018-09-10T09:20:17.170Z,970.52
2018-09-10T09:21:17.214Z,970.31
2018-09-10T09:22:17.194Z,970.48
2018-09-10T09:23:17.330Z,970.32
2018-09-10T09:24:17.215Z,970.39
2018-09-10T09:25:17.240Z,970.39
2018-09-10T09:26:17.232Z,970.35
2018-09-10T09:27:17.250Z,970.20
2018-09-10T09:28:17.261Z,970.21
2018-09-10T09:29:17.292Z,970.35
2018-09-10T09:30:17.339Z,970.26
2018-09-10T09:31:17.293Z,970.38
2018-09-10T09:32:17.302Z,970.24
2018-09-10T09:33:17.311Z,970.40
2018-09-10T09:34:17.355Z,970.41
2018-09-10T09:35:17.336Z,970.10
2018-09-10T09:36:17.368Z,970.20
2018-09-10T09:37:17.360Z,969.95
2018-09-10T09:38:17.371Z,969.85
2018-09-10T09:39:17.384Z,969.68
2018-09-10T09:40:17.389Z,969.58
2018-09-10T09:41:17.400Z,969.43
2018-09-10T09:42:17.467Z,969.41
2018-09-10T09:43:17.474Z,969.39
2018-09-10T09:44:17.433Z,969.40
2018-09-10T09:45:17.443Z,969.49
2018-09-10T09:46:17.459Z,969.41
2018-09-10T09:47:17.472Z,969.44
2018-09-10T09:48:17.477Z,969.46
2018-09-10T09:49:17.512Z,969.49
2018-09-10T09:50:17.502Z,969.45
2018-09-10T09:51:17.589Z,969.43
2018-09-10T09:52:17.523Z,969.42
2018-09-10T09:53:17.549Z,969.43
2018-09-10T09:54:17.561Z,969.45
2018-09-10T09:55:17.533Z,969.41
2018-09-10T09:56:17.538Z,969.35
2018-09-10T09:57:17.585Z,969.40
2018-09-10T09:58:17.558Z,969.44
2018-09-10T09:59:17.613Z,969.45
2018-09-10T10:00:17.567Z,969.42
2018-09-10T10:01:17.574Z,969.47
2018-09-10T10:02:17.593Z,969.55
2018-09-10T10:03:17.594Z,969.51
2018-09-10T10:04:17.676Z,969.47
2018-09-10T10:05:17.607Z,969.49
2018-09-10T10:06:17.610Z,969.49
2018-09-10T10:07:17.622Z,969.55
2018-09-10T10:08:17.629Z,969.61
2018-09-10T10:09:17.636Z,969.57
2018-09-10T10:10:19.652Z,969.59
2018-09-10T10:11:20.628Z,969.66
2018-09-10T10:12:17.671Z,969.63
2018-09-10T10:13:17.657Z,969.66
2018-09-10T10:14:17.663Z,969.63
2018-09-10T10:15:17.669Z,969.65
2018-09-10T10:16:17.735Z,969.62
2018-09-10T10:17:17.684Z,969.60
2018-09-10T10:18:17.690Z,969.59
2018-09-10T10:19:17.697Z,969.58
2018-09-10T10:20:17.708Z,969.53
2018-09-10T10:21:17.706Z,969.55
2018-09-10T10:22:17.720Z,969.51
2018-09-10T10:23:17.749Z,969.56
2018-09-10T10:24:17.730Z,969.61
2018-09-10T10:25:17.758Z,969.54
2018-09-10T10:26:17.777Z,969.53
2018-09-10T10:27:17.776Z,969.51
2018-09-10T10:28:17.845Z,969.53
2018-09-10T10:29:17.757Z,969.50
2018-09-10T10:30:17.795Z,969.56
2018-09-10T10:31:17.787Z,969.45
2018-09-10T10:32:17.786Z,969.49
2018-09-10T10:33:17.787Z,969.45
2018-09-10T10:34:17.838Z,969.42
2018-09-10T10:35:17.798Z,969.42
2018-09-10T10:36:17.800Z,969.42
2018-09-10T10:37:17.828Z,969.39
2018-09-10T10:38:17.811Z,969.42
2018-09-10T10:39:17.875Z,969.39
2018-09-10T10:40:17.826Z,969.38
2018-09-10T10:41:17.827Z,969.39
2018-09-10T10:42:17.837Z,969.40
2018-09-10T10:43:17.839Z,969.43
2018-09-10T10:44:17.846Z,969.37
2018-09-10T10:45:17.917Z,969.36
2018-09-10T10:46:20.551Z,969.33
2018-09-10T10:47:17.889Z,969.41
2018-09-10T10:48:17.917Z,969.36
2018-09-10T10:49:17.874Z,969.37
2018-09-10T10:50:17.882Z,969.35
2018-09-10T10:51:17.886Z,969.32
2018-09-10T10:52:17.923Z,969.36
2018-09-10T10:53:17.896Z,969.33
2018-09-10T10:54:17.925Z,969.34
2018-09-10T10:55:17.912Z,969.31
2018-09-10T10:56:17.915Z,969.32
2018-09-10T10:57:17.921Z,969.33
2018-09-10T10:58:17.927Z,969.34
2018-09-10T10:59:18.015Z,969.32
2018-09-10T11:00:17.937Z,969.27
2018-09-10T11:01:17.946Z,969.24
2018-09-10T11:02:17.955Z,969.22
2018-09-10T11:03:17.957Z,969.21
2018-09-10T11:04:18.019Z,969.26
2018-09-10T11:05:17.968Z,969.24
2018-09-10T11:06:17.973Z,969.25
2018-09-10T11:07:17.980Z,969.29
2018-09-10T11:08:18.012Z,969.30
2018-09-10T11:09:18.001Z,969.32
2018-09-10T11:10:17.997Z,969.32
2018-09-10T11:11:18.011Z,969.31
2018-09-10T11:12:18.043Z,969.28
2018-09-10T11:13:18.015Z,969.34
2018-09-10T11:14:18.026Z,969.36
2018-09-10T11:15:18.036Z,969.32
2018-09-10T11:16:18.038Z,969.32
2018-09-10T11:17:18.080Z,969.35
2018-09-10T11:18:18.088Z,969.29
2018-09-10T11:19:18.058Z,969.26
2018-09-10T11:20:18.057Z,969.30
2018-09-10T11:21:18.062Z,969.29
2018-09-10T11:22:18.119Z,969.30
2018-09-10T11:23:18.078Z,969.25
2018-09-10T11:24:18.079Z,969.26
2018-09-10T11:25:18.089Z,969.23
2018-09-10T11:26:18.091Z,969.20
2018-09-10T11:27:18.102Z,969.21
2018-09-10T11:28:18.129Z,969.15
2018-09-10T11:29:18.115Z,969.11
2018-09-10T11:30:18.120Z,969.18
2018-09-10T11:31:18.128Z,969.22
2018-09-10T11:32:18.131Z,969.18
2018-09-10T11:33:18.138Z,969.22
2018-09-10T11:34:18.149Z,969.18
2018-09-10T11:35:18.150Z,969.17
2018-09-10T11:36:18.155Z,969.22
2018-09-10T11:37:18.167Z,969.21
2018-09-10T11:38:18.192Z,969.15
2018-09-10T11:39:18.177Z,969.13
2018-09-10T11:40:18.182Z,969.10
2018-09-10T11:41:18.189Z,969.11
2018-09-10T11:42:18.191Z,969.16
2018-09-10T11:43:18.199Z,969.04
2018-09-10T11:44:18.205Z,969.11
2018-09-10T11:45:18.211Z,969.01
2018-09-10T11:46:18.249Z,969.09
2018-09-10T11:47:18.225Z,969.06
2018-09-10T11:48:18.238Z,969.09
2018-09-10T11:49:18.234Z,969.13
2018-09-10T11:50:18.244Z,969.15
2018-09-10T11:51:18.257Z,969.20
2018-09-10T11:52:18.258Z,969.18
2018-09-10T11:53:18.283Z,969.18
2018-09-10T11:54:18.268Z,969.16
2018-09-10T11:55:18.276Z,969.13
2018-09-10T11:56:18.282Z,969.22
2018-09-10T11:57:18.289Z,969.18
2018-09-10T11:58:18.336Z,969.17
2018-09-10T11:59:18.395Z,969.20
2018-09-10T12:00:18.311Z,969.22
2018-09-10T12:01:18.310Z,969.23
2018-09-10T12:02:18.318Z,969.22
2018-09-10T12:03:18.323Z,969.23
2018-09-10T12:04:18.330Z,969.20
2018-09-10T12:05:18.370Z,969.14
2018-09-10T12:06:18.351Z,969.14
2018-09-10T12:07:18.353Z,969.10
2018-09-10T12:08:18.418Z,969.09
2018-09-10T12:09:18.392Z,969.08
2018-09-10T12:10:18.371Z,969.08
2018-09-10T12:11:18.374Z,969.07
2018-09-10T12:12:18.402Z,969.02
2018-09-10T12:13:20.180Z,969.03
2018-09-10T12:14:18.392Z,969.07
2018-09-10T12:15:18.548Z,969.05
2018-09-10T12:16:18.438Z,969.07
2018-09-10T12:17:18.448Z,969.04
2018-09-10T12:18:18.426Z,969.03
2018-09-10T12:19:18.445Z,968.99
2018-09-10T12:20:18.444Z,968.97
2018-09-10T12:21:19.126Z,969.06
2018-09-10T12:22:18.449Z,969.00
2018-09-10T12:23:18.494Z,969.02
2018-09-10T12:24:18.704Z,968.98
2018-09-10T12:25:18.466Z,969.01
2018-09-10T12:26:18.470Z,969.03
2018-09-10T12:27:18.472Z,968.96
2018-09-10T12:28:18.483Z,968.94
2018-09-10T12:29:18.485Z,968.90
2018-09-10T12:30:18.492Z,968.88
2018-09-10T12:31:18.500Z,968.92